RJTY/OKO METAR and TAF weather

Enter ICAO airport designator
Station Type Date Time Source
RJTY METAR 2021/01/20 18:56 UTC NOAA

RJTY 201856Z AUTO 00000KT 10SM CLR M02/M07 A3037 RMK AO2 SLP296 T10221068 FZRANO $


Station Type Date Time Source
RJTY Decoded METAR 2021/01/20 18:56 UTC NOAA

Yokota Ab, Japan (RJTY) 35-45N 139-21E 142M
Jan 20, 2021 - 01:56 PM EST / 2021.01.20 1856 UTC
Wind: Calm:0
Visibility: 10 mile(s):0
Sky conditions: clear
Temperature: 28.0 F (-2.2 C)
Dew Point: 19.8 F (-6.8 C)
Relative Humidity: 70%
Pressure (altimeter): 30.37 in. Hg (1028 hPa)
ob: RJTY 201856Z AUTO 00000KT 10SM CLR M02/M07 A3037 RMK AO2 SLP296 T10221068 FZRANO
cycle: 19

Station Type Date Time Source
RJTY TAF 2021/01/20 13:03 UTC NOAA

TAF TAF RJTY 201300Z 2013/2119 30006KT 9999 BKN030 QNH3036INS
BECMG 2021/2022 28006KT 9999 SCT030 QNH3034INS
BECMG 2101/2102 08006KT 9999 SKC QNH3023INS TX09/2105Z TNM02/2021Z LAST NO
AMDS AFT 2013 NEXT 2021

Example: see airport list